createdAt,value
2023-02-17T00:01:14.785Z,10.30
2023-02-17T00:03:41.543Z,11.85
2023-02-17T00:06:11.790Z,10.80
2023-02-17T00:08:38.612Z,10.10
2023-02-17T00:11:05.758Z,8.45
2023-02-17T00:13:33.244Z,9.73
2023-02-17T00:16:00.501Z,8.82
2023-02-17T00:18:27.137Z,11.85
2023-02-17T00:20:53.807Z,9.52
2023-02-17T00:23:20.403Z,10.07
2023-02-17T00:25:47.132Z,10.48
2023-02-17T00:28:13.722Z,9.30
2023-02-17T00:30:40.472Z,9.02
2023-02-17T00:33:07.084Z,10.60
2023-02-17T00:35:33.794Z,10.15
2023-02-17T00:38:00.486Z,8.45
2023-02-17T00:40:27.091Z,8.73
2023-02-17T00:42:54.981Z,10.25
2023-02-17T00:45:21.719Z,9.95
2023-02-17T00:47:48.434Z,8.82
2023-02-17T00:50:15.067Z,8.88
2023-02-17T00:52:41.751Z,8.90
2023-02-17T00:55:08.574Z,9.50
2023-02-17T00:57:35.205Z,8.95
2023-02-17T01:00:01.831Z,8.18
2023-02-17T01:02:28.427Z,8.90
2023-02-17T01:04:55.114Z,8.05
2023-02-17T01:07:21.848Z,9.35
2023-02-17T01:09:48.482Z,8.85
2023-02-17T01:12:15.119Z,11.63
2023-02-17T01:14:41.766Z,7.60
2023-02-17T01:17:08.386Z,8.35
2023-02-17T01:19:35.005Z,9.40
2023-02-17T01:22:01.645Z,9.27
2023-02-17T01:24:28.333Z,9.73
2023-02-17T01:26:55.189Z,10.80
2023-02-17T01:29:21.789Z,8.13
2023-02-17T01:31:48.436Z,10.82
2023-02-17T01:34:15.079Z,8.65
2023-02-17T01:36:41.775Z,10.50
2023-02-17T01:39:08.358Z,8.68
2023-02-17T01:41:35.026Z,8.90
2023-02-17T01:44:12.714Z,12.02
2023-02-17T01:46:41.552Z,11.68
2023-02-17T01:49:24.440Z,9.27
2023-02-17T01:51:57.149Z,10.27
2023-02-17T01:54:34.016Z,9.68
2023-02-17T01:57:02.058Z,8.32
2023-02-17T01:59:30.070Z,9.52
2023-02-17T02:02:00.670Z,9.48
2023-02-17T02:04:32.125Z,8.70
2023-02-17T02:06:59.527Z,9.77
2023-02-17T02:09:32.656Z,9.50
2023-02-17T02:12:00.289Z,10.57
2023-02-17T02:14:27.888Z,8.75
2023-02-17T02:17:35.538Z,9.20
2023-02-17T02:20:26.177Z,8.13
2023-02-17T02:23:07.981Z,10.50
2023-02-17T02:25:52.542Z,8.75
2023-02-17T02:28:31.066Z,8.05
2023-02-17T02:31:18.889Z,7.32
2023-02-17T02:33:56.730Z,8.73
2023-02-17T02:36:34.539Z,8.02
2023-02-17T02:39:15.846Z,7.35
2023-02-17T02:41:50.414Z,7.93
2023-02-17T02:44:19.725Z,7.68
2023-02-17T02:47:27.808Z,8.07
2023-02-17T02:49:54.491Z,7.47
2023-02-17T02:52:35.319Z,8.68
2023-02-17T02:55:13.685Z,10.25
2023-02-17T02:58:12.608Z,7.63
2023-02-17T03:01:07.383Z,8.48
2023-02-17T03:03:52.515Z,7.28
2023-02-17T03:06:39.500Z,7.93
2023-02-17T03:09:20.595Z,8.30
2023-02-17T03:11:47.839Z,8.98
2023-02-17T03:14:17.875Z,10.13
2023-02-17T03:16:45.187Z,8.68
2023-02-17T03:19:13.884Z,9.80
2023-02-17T03:21:57.680Z,7.72
2023-02-17T03:24:25.010Z,8.43
2023-02-17T03:26:51.632Z,7.30
2023-02-17T03:29:18.390Z,8.07
2023-02-17T03:31:45.181Z,8.20
2023-02-17T03:34:11.845Z,8.60
2023-02-17T03:36:38.441Z,7.57
2023-02-17T03:39:05.049Z,6.57
2023-02-17T03:41:31.686Z,9.35
2023-02-17T03:43:58.319Z,7.18
2023-02-17T03:46:25.078Z,7.03
2023-02-17T03:48:52.162Z,7.05
2023-02-17T03:51:24.217Z,6.88
2023-02-17T03:53:51.052Z,8.57
2023-02-17T03:56:18.757Z,6.80
2023-02-17T03:58:45.478Z,8.13
2023-02-17T04:01:12.934Z,8.18
2023-02-17T04:03:40.474Z,7.97
2023-02-17T04:06:08.600Z,7.30
2023-02-17T04:08:35.391Z,6.97
2023-02-17T04:11:04.136Z,7.47
2023-02-17T04:13:30.844Z,8.07
2023-02-17T04:15:57.553Z,6.95
2023-02-17T04:18:24.558Z,6.60
2023-02-17T04:20:51.765Z,6.72
2023-02-17T04:23:18.885Z,7.60
2023-02-17T04:25:46.108Z,8.18
2023-02-17T04:28:13.448Z,6.00
2023-02-17T04:30:42.569Z,6.40
2023-02-17T04:33:09.260Z,6.60
2023-02-17T04:35:35.914Z,7.43
2023-02-17T04:38:02.719Z,6.22
2023-02-17T04:40:29.315Z,5.85
2023-02-17T04:42:55.936Z,8.57
2023-02-17T04:45:23.438Z,5.72
2023-02-17T04:47:50.225Z,5.72
2023-02-17T04:50:16.938Z,6.95
2023-02-17T04:52:43.578Z,5.03
2023-02-17T04:55:10.308Z,6.03
2023-02-17T04:57:37.009Z,6.53
2023-02-17T05:00:06.185Z,6.28
2023-02-17T05:02:32.924Z,8.65
2023-02-17T05:04:59.538Z,6.25
2023-02-17T05:07:26.234Z,6.82
2023-02-17T05:09:54.161Z,6.15
2023-02-17T05:12:20.787Z,6.22
2023-02-17T05:14:47.446Z,7.03
2023-02-17T05:17:14.072Z,7.38
2023-02-17T05:19:40.694Z,5.65
2023-02-17T05:22:07.321Z,7.63
2023-02-17T05:24:33.913Z,5.85
2023-02-17T05:27:00.542Z,5.43
2023-02-17T05:29:27.148Z,7.13
2023-02-17T05:31:53.842Z,6.93
2023-02-17T05:34:20.506Z,6.63
2023-02-17T05:36:47.126Z,7.10
2023-02-17T05:39:13.807Z,5.70
2023-02-17T05:41:40.415Z,5.43
2023-02-17T05:44:07.002Z,5.30
2023-02-17T05:46:33.646Z,5.93
2023-02-17T05:49:00.283Z,5.63
2023-02-17T05:51:26.931Z,6.50
2023-02-17T05:53:53.530Z,5.38
2023-02-17T05:56:20.339Z,5.85
2023-02-17T05:58:46.955Z,5.20
2023-02-17T06:01:13.799Z,6.63
2023-02-17T06:03:40.755Z,5.43
2023-02-17T06:06:08.180Z,5.70
2023-02-17T06:08:35.431Z,5.53
2023-02-17T06:11:02.071Z,5.70
2023-02-17T06:13:28.782Z,6.35
2023-02-17T06:15:55.433Z,5.65
2023-02-17T06:18:22.052Z,5.10
2023-02-17T06:20:48.652Z,4.55
2023-02-17T06:23:15.263Z,6.47
2023-02-17T06:25:42.610Z,6.20
2023-02-17T06:28:09.221Z,6.05
2023-02-17T06:30:35.812Z,7.18
2023-02-17T06:33:02.457Z,6.13
2023-02-17T06:35:29.072Z,4.95
2023-02-17T06:37:55.758Z,6.63
2023-02-17T06:40:22.550Z,6.43
2023-02-17T06:42:49.420Z,5.68
2023-02-17T06:45:16.573Z,6.55
2023-02-17T06:47:43.160Z,4.95
2023-02-17T06:50:11.159Z,4.00
2023-02-17T06:52:37.885Z,5.10
2023-02-17T06:55:05.044Z,6.10
2023-02-17T06:57:31.641Z,6.75
2023-02-17T06:59:58.320Z,4.53
2023-02-17T07:02:25.088Z,5.80
2023-02-17T07:04:51.805Z,6.65
2023-02-17T07:07:18.386Z,4.93
2023-02-17T07:09:44.983Z,5.90
2023-02-17T07:12:11.573Z,4.90
2023-02-17T07:14:38.344Z,8.50
2023-02-17T07:17:05.015Z,5.05
2023-02-17T07:19:31.704Z,6.80
2023-02-17T07:21:58.362Z,4.22
2023-02-17T07:24:25.214Z,4.47
2023-02-17T07:26:53.788Z,4.97
2023-02-17T07:29:20.418Z,5.53
2023-02-17T07:31:47.300Z,5.93
2023-02-17T07:34:13.965Z,4.63
2023-02-17T07:36:40.560Z,5.55
2023-02-17T07:39:07.311Z,4.10
2023-02-17T07:41:33.987Z,5.88
2023-02-17T07:44:00.587Z,4.75
2023-02-17T07:46:27.746Z,4.63
2023-02-17T07:48:56.413Z,5.75
2023-02-17T07:51:23.544Z,5.32
2023-02-17T07:53:51.720Z,5.60
2023-02-17T07:56:21.553Z,6.47
2023-02-17T07:58:48.709Z,5.07
2023-02-17T08:01:16.543Z,6.25
2023-02-17T08:03:43.862Z,4.78
2023-02-17T08:06:12.600Z,5.00
2023-02-17T08:08:57.997Z,5.30
2023-02-17T08:11:45.017Z,5.05
2023-02-17T08:14:13.295Z,9.90
2023-02-17T08:16:40.434Z,7.22
2023-02-17T08:19:07.728Z,4.28
2023-02-17T08:21:35.229Z,7.30
2023-02-17T08:24:01.855Z,10.32
2023-02-17T08:26:28.727Z,4.97
2023-02-17T08:28:56.217Z,6.85
2023-02-17T08:31:26.413Z,7.82
2023-02-17T08:33:53.188Z,5.10
2023-02-17T08:36:22.322Z,7.40
2023-02-17T08:38:51.271Z,8.35
2023-02-17T08:41:22.228Z,6.28
2023-02-17T08:43:49.842Z,14.82
2023-02-17T08:46:18.034Z,5.55
2023-02-17T08:48:45.845Z,4.65
2023-02-17T08:51:14.915Z,4.55
2023-02-17T08:53:42.061Z,5.78
2023-02-17T08:56:09.293Z,8.32
2023-02-17T08:58:36.464Z,4.68
2023-02-17T09:01:04.090Z,7.57
2023-02-17T09:03:33.133Z,7.47
2023-02-17T09:05:59.748Z,9.05
2023-02-17T09:08:27.642Z,4.32
2023-02-17T09:10:54.332Z,5.78
2023-02-17T09:13:21.055Z,9.27
2023-02-17T09:15:47.998Z,5.10
2023-02-17T09:18:14.650Z,6.68
2023-02-17T09:20:41.535Z,8.48
2023-02-17T09:23:08.471Z,4.45
2023-02-17T09:25:35.148Z,5.00
2023-02-17T09:28:02.035Z,7.13
2023-02-17T09:30:28.777Z,5.63
2023-02-17T09:32:55.499Z,10.50
2023-02-17T09:35:22.127Z,7.00
2023-02-17T09:37:49.075Z,6.00
2023-02-17T09:40:22.266Z,5.80
2023-02-17T09:45:44.122Z,4.18
2023-02-17T09:48:15.544Z,5.78
2023-02-17T09:51:12.481Z,6.13
2023-02-17T09:53:54.130Z,5.38
2023-02-17T09:56:30.337Z,4.47
2023-02-17T09:59:02.215Z,5.45
2023-02-17T10:01:32.067Z,4.60
2023-02-17T10:04:04.931Z,5.10
2023-02-17T10:06:36.096Z,4.80
2023-02-17T10:09:15.558Z,4.55
2023-02-17T10:11:46.330Z,3.47
2023-02-17T10:14:19.207Z,4.95
2023-02-17T10:16:53.471Z,5.00
2023-02-17T10:19:31.607Z,4.70
2023-02-17T10:22:06.765Z,3.45
2023-02-17T10:24:33.423Z,4.78
2023-02-17T10:27:08.959Z,5.05
2023-02-17T10:29:47.682Z,3.88
2023-02-17T10:32:19.968Z,4.35
2023-02-17T10:34:46.754Z,4.38
2023-02-17T10:37:47.452Z,5.80
2023-02-17T10:40:34.461Z,3.63
2023-02-17T10:43:07.046Z,3.67
2023-02-17T10:45:36.135Z,6.07
2023-02-17T10:48:08.962Z,3.70
2023-02-17T10:50:38.013Z,7.88
2023-02-17T10:53:14.609Z,3.40
2023-02-17T10:55:53.146Z,4.20
2023-02-17T10:58:26.497Z,4.38
2023-02-17T11:00:56.936Z,3.40
2023-02-17T11:03:29.599Z,4.43
2023-02-17T11:06:20.311Z,5.30
2023-02-17T11:09:01.047Z,6.57
2023-02-17T11:11:30.680Z,4.95
2023-02-17T11:14:12.159Z,3.80
2023-02-17T11:16:45.834Z,3.53
2023-02-17T11:19:27.874Z,4.53
2023-02-17T11:21:57.436Z,4.55
2023-02-17T11:24:24.587Z,4.97
2023-02-17T11:26:57.579Z,5.18
2023-02-17T11:29:24.450Z,5.50
2023-02-17T11:32:09.274Z,3.33
2023-02-17T11:34:38.668Z,4.45
2023-02-17T11:37:14.290Z,2.80
2023-02-17T11:39:46.570Z,3.78
2023-02-17T11:42:28.032Z,9.38
2023-02-17T11:44:56.784Z,13.05
2023-02-17T11:47:52.541Z,7.88
2023-02-17T11:50:49.751Z,8.85
2023-02-17T11:53:46.842Z,6.53
2023-02-17T11:56:18.071Z,6.38
2023-02-17T11:58:59.895Z,6.75
2023-02-17T12:02:00.461Z,4.30
2023-02-17T12:04:32.522Z,2.97
2023-02-17T12:07:37.177Z,4.10
2023-02-17T12:10:41.862Z,4.32
2023-02-17T12:13:20.777Z,4.90
2023-02-17T12:16:19.509Z,4.32
2023-02-17T12:18:53.895Z,4.40
2023-02-17T12:21:44.786Z,4.97
2023-02-17T12:24:38.512Z,4.03
2023-02-17T12:29:50.735Z,3.60
2023-02-17T12:32:26.382Z,2.75
2023-02-17T12:34:59.070Z,2.83
2023-02-17T12:37:31.304Z,3.67
2023-02-17T12:40:22.185Z,4.78
2023-02-17T12:43:05.644Z,2.25
2023-02-17T12:48:37.120Z,4.15
2023-02-17T12:51:12.466Z,5.68
2023-02-17T12:54:06.442Z,4.75
2023-02-17T12:56:47.697Z,3.83
2023-02-17T12:59:17.464Z,2.58
2023-02-17T13:01:55.426Z,7.00
2023-02-17T13:04:25.210Z,2.60
2023-02-17T13:07:30.237Z,5.40
2023-02-17T13:09:57.395Z,3.30
2023-02-17T13:12:24.218Z,4.70
2023-02-17T13:14:59.598Z,3.08
2023-02-17T13:17:27.798Z,2.72
2023-02-17T13:20:26.077Z,3.17
2023-02-17T13:23:05.451Z,8.10
2023-02-17T13:25:37.543Z,11.23
2023-02-17T13:28:18.645Z,2.07
2023-02-17T13:30:48.330Z,2.67
2023-02-17T13:33:40.740Z,3.10
2023-02-17T13:36:33.794Z,2.97
2023-02-17T13:39:04.292Z,2.50
2023-02-17T13:41:48.624Z,1.35
2023-02-17T13:44:33.781Z,3.33
2023-02-17T13:47:07.678Z,1.65
2023-02-17T13:49:35.302Z,2.50
2023-02-17T13:52:17.882Z,2.58
2023-02-17T13:55:20.499Z,5.27
2023-02-17T13:57:53.151Z,2.70
2023-02-17T14:00:24.924Z,2.40
2023-02-17T14:03:19.077Z,2.25
2023-02-17T14:05:47.839Z,3.10
2023-02-17T14:08:36.889Z,3.72
2023-02-17T14:11:16.744Z,2.58
2023-02-17T14:13:46.484Z,1.60
2023-02-17T14:16:34.467Z,2.00
2023-02-17T14:19:12.796Z,3.33
2023-02-17T14:21:57.355Z,2.05
2023-02-17T14:24:34.039Z,6.35
2023-02-17T14:27:14.234Z,2.97
2023-02-17T14:29:43.259Z,1.45
2023-02-17T14:32:31.183Z,6.35
2023-02-17T14:35:30.332Z,3.10
2023-02-17T14:38:19.027Z,3.47
2023-02-17T14:40:45.625Z,3.08
2023-02-17T14:43:12.238Z,8.40
2023-02-17T14:45:38.887Z,1.63
2023-02-17T14:48:05.963Z,3.55
2023-02-17T14:50:34.274Z,1.52
2023-02-17T14:53:00.905Z,2.05
2023-02-17T14:55:39.001Z,2.88
2023-02-17T14:58:05.843Z,2.63
2023-02-17T15:00:32.458Z,2.20
2023-02-17T15:02:59.116Z,3.60
2023-02-17T15:05:25.870Z,2.22
2023-02-17T15:07:52.570Z,3.47
2023-02-17T15:10:27.459Z,4.97
2023-02-17T15:12:54.623Z,2.63
2023-02-17T15:15:21.350Z,2.88
2023-02-17T15:17:48.785Z,3.80
2023-02-17T15:20:16.761Z,4.20
2023-02-17T15:22:44.426Z,3.20
2023-02-17T15:25:22.190Z,2.22
2023-02-17T15:27:49.061Z,2.92
2023-02-17T15:30:18.514Z,2.15
2023-02-17T15:32:46.695Z,2.25
2023-02-17T15:35:26.859Z,2.90
2023-02-17T15:37:54.191Z,2.78
2023-02-17T15:40:23.820Z,4.07
2023-02-17T15:42:55.143Z,4.57
2023-02-17T15:45:24.142Z,3.22
2023-02-17T15:47:52.434Z,7.75
2023-02-17T15:50:23.033Z,3.35
2023-02-17T15:52:51.175Z,1.95
2023-02-17T15:55:19.644Z,3.67
2023-02-17T15:57:55.954Z,1.67
2023-02-17T16:00:26.913Z,4.72
2023-02-17T16:02:54.302Z,2.35
2023-02-17T16:05:25.498Z,4.13
2023-02-17T16:07:52.237Z,3.97
2023-02-17T16:10:21.679Z,4.10
2023-02-17T16:12:50.498Z,7.15
2023-02-17T16:15:23.295Z,5.40
2023-02-17T16:17:51.179Z,3.30
2023-02-17T16:20:20.249Z,3.17
2023-02-17T16:22:47.071Z,5.30
2023-02-17T16:25:16.351Z,4.60
2023-02-17T16:27:45.194Z,3.30
2023-02-17T16:30:30.154Z,5.30
2023-02-17T16:32:57.111Z,2.92
2023-02-17T16:35:26.420Z,4.43
2023-02-17T16:38:05.285Z,5.63
2023-02-17T16:40:36.496Z,5.05
2023-02-17T16:43:04.130Z,6.07
2023-02-17T16:45:33.658Z,4.43
2023-02-17T16:48:01.754Z,3.70
2023-02-17T16:50:34.316Z,4.88
2023-02-17T16:53:04.235Z,4.65
2023-02-17T16:55:33.900Z,2.90
2023-02-17T16:58:01.460Z,2.85
2023-02-17T17:00:31.697Z,2.88
2023-02-17T17:02:58.842Z,3.60
2023-02-17T17:05:29.198Z,2.90
2023-02-17T17:07:56.269Z,3.38
2023-02-17T17:10:27.509Z,4.65
2023-02-17T17:12:54.245Z,6.22
2023-02-17T17:15:21.490Z,3.70
2023-02-17T17:18:00.268Z,4.88
2023-02-17T17:20:34.188Z,4.28
2023-02-17T17:23:06.422Z,4.00
2023-02-17T17:25:37.060Z,5.18
2023-02-17T17:28:04.706Z,4.90
2023-02-17T17:30:35.686Z,2.58
2023-02-17T17:33:02.974Z,2.45
2023-02-17T17:35:30.488Z,2.58
2023-02-17T17:37:58.788Z,2.58
2023-02-17T17:40:28.926Z,2.33
2023-02-17T17:42:55.756Z,2.13
2023-02-17T17:45:23.916Z,2.42
2023-02-17T17:47:51.388Z,2.00
2023-02-17T17:50:22.706Z,3.17
2023-02-17T17:52:49.602Z,2.28
2023-02-17T17:55:16.319Z,2.10
2023-02-17T17:57:44.683Z,2.25
2023-02-17T18:00:15.148Z,1.95
2023-02-17T18:02:42.121Z,2.67
2023-02-17T18:05:09.403Z,3.50
2023-02-17T18:07:38.452Z,2.15
2023-02-17T18:10:09.677Z,1.15
2023-02-17T18:12:37.099Z,3.47
2023-02-17T18:15:05.366Z,1.13
2023-02-17T18:17:35.418Z,0.70
2023-02-17T18:20:02.320Z,2.45
2023-02-17T18:22:28.983Z,1.70
2023-02-17T18:24:55.606Z,1.40
2023-02-17T18:27:22.921Z,0.88
2023-02-17T18:29:49.592Z,1.80
2023-02-17T18:32:16.174Z,1.55
2023-02-17T18:34:42.782Z,1.95
2023-02-17T18:37:09.411Z,1.65
2023-02-17T18:39:36.032Z,2.20
2023-02-17T18:42:02.726Z,2.50
2023-02-17T18:44:29.335Z,1.42
2023-02-17T18:46:55.951Z,1.75
2023-02-17T18:49:22.576Z,1.40
2023-02-17T18:51:50.685Z,1.15
2023-02-17T18:54:17.303Z,2.90
2023-02-17T18:56:43.951Z,2.75
2023-02-17T18:59:10.588Z,1.63
2023-02-17T19:01:41.538Z,1.83
2023-02-17T19:04:09.765Z,1.95
2023-02-17T19:06:36.474Z,1.00
2023-02-17T19:09:07.306Z,2.85
2023-02-17T19:11:34.440Z,2.00
2023-02-17T19:14:02.041Z,1.88
2023-02-17T19:16:30.945Z,2.88
2023-02-17T19:18:58.386Z,1.77
2023-02-17T19:21:25.493Z,1.27
2023-02-17T19:23:52.862Z,1.85
2023-02-17T19:26:20.227Z,2.67
2023-02-17T19:28:47.367Z,1.83
2023-02-17T19:31:16.816Z,2.33
2023-02-17T19:33:44.860Z,1.90
2023-02-17T19:36:22.384Z,1.85
2023-02-17T19:38:50.256Z,1.20
2023-02-17T19:41:18.249Z,3.00
2023-02-17T19:43:45.307Z,1.73
2023-02-17T19:46:14.513Z,1.75
2023-02-17T19:48:41.582Z,2.03
2023-02-17T19:51:09.846Z,2.88
2023-02-17T19:53:36.914Z,1.20
2023-02-17T19:56:12.346Z,1.60
2023-02-17T19:58:40.878Z,1.92
2023-02-17T20:01:09.695Z,1.23
2023-02-17T20:03:36.677Z,1.55
2023-02-17T20:06:12.331Z,2.65
2023-02-17T20:08:39.997Z,5.57
2023-02-17T20:11:09.312Z,1.38
2023-02-17T20:13:45.672Z,1.30
2023-02-17T20:16:15.773Z,1.83
2023-02-17T20:18:44.915Z,2.58
2023-02-17T20:21:14.530Z,1.83
2023-02-17T20:23:41.944Z,1.65
2023-02-17T20:26:15.030Z,0.88
2023-02-17T20:28:41.681Z,0.65
2023-02-17T20:31:09.391Z,0.75
2023-02-17T20:33:36.551Z,1.00
2023-02-17T20:36:04.177Z,0.63
2023-02-17T20:38:30.782Z,1.48
2023-02-17T20:40:57.577Z,1.98
2023-02-17T20:43:24.240Z,1.38
2023-02-17T20:45:52.185Z,1.73
2023-02-17T20:48:19.127Z,1.42
2023-02-17T20:50:45.752Z,1.33
2023-02-17T20:53:13.219Z,0.43
2023-02-17T20:55:40.023Z,0.50
2023-02-17T20:58:06.723Z,0.90
2023-02-17T21:00:34.166Z,0.77
2023-02-17T21:03:01.014Z,0.80
2023-02-17T21:05:27.671Z,1.73
2023-02-17T21:07:56.662Z,3.58
2023-02-17T21:10:27.425Z,1.73
2023-02-17T21:12:54.482Z,0.95
2023-02-17T21:15:21.522Z,3.05
2023-02-17T21:17:49.192Z,0.70
2023-02-17T21:20:19.269Z,0.75
2023-02-17T21:22:45.981Z,1.75
2023-02-17T21:25:13.149Z,0.43
2023-02-17T21:27:39.773Z,0.70
2023-02-17T21:30:08.404Z,1.33
2023-02-17T21:32:35.168Z,0.43
2023-02-17T21:35:01.956Z,1.85
2023-02-17T21:37:28.638Z,0.65
2023-02-17T21:39:55.302Z,1.15
2023-02-17T21:42:43.645Z,1.55
2023-02-17T21:45:12.198Z,3.22
2023-02-17T21:47:38.855Z,0.73
2023-02-17T21:50:06.315Z,1.60
2023-02-17T21:52:32.962Z,1.27
2023-02-17T21:55:01.104Z,1.13
2023-02-17T21:57:27.833Z,1.10
2023-02-17T21:59:54.593Z,0.85
2023-02-17T22:02:21.237Z,1.67
2023-02-17T22:04:47.853Z,1.55
2023-02-17T22:07:14.532Z,1.50
2023-02-17T22:09:41.139Z,1.17
2023-02-17T22:12:07.875Z,1.23
2023-02-17T22:14:34.634Z,1.73
2023-02-17T22:17:01.294Z,1.00
2023-02-17T22:19:31.246Z,1.52
2023-02-17T22:21:58.347Z,1.45
2023-02-17T22:24:27.274Z,1.45
2023-02-17T22:26:54.824Z,1.58
2023-02-17T22:29:21.523Z,1.52
2023-02-17T22:31:50.298Z,0.55
2023-02-17T22:34:17.197Z,0.77
2023-02-17T22:36:43.800Z,0.50
2023-02-17T22:39:10.551Z,0.55
2023-02-17T22:41:38.811Z,1.70
2023-02-17T22:44:05.581Z,2.00
2023-02-17T22:46:32.334Z,0.60
2023-02-17T22:48:59.518Z,1.00
2023-02-17T22:51:31.333Z,0.88
2023-02-17T22:53:59.957Z,1.75
2023-02-17T22:56:26.665Z,1.13
2023-02-17T22:58:58.029Z,2.15
2023-02-17T23:01:25.264Z,1.23
2023-02-17T23:03:54.619Z,4.10
2023-02-17T23:06:25.197Z,0.95
2023-02-17T23:08:53.065Z,1.23
2023-02-17T23:11:42.965Z,1.83
2023-02-17T23:14:11.160Z,1.13
2023-02-17T23:16:38.149Z,1.83
2023-02-17T23:19:13.910Z,2.60
2023-02-17T23:21:52.235Z,2.17
2023-02-17T23:24:19.827Z,1.55
2023-02-17T23:26:47.584Z,2.40
2023-02-17T23:29:14.939Z,1.75
2023-02-17T23:31:41.593Z,2.00
2023-02-17T23:34:08.509Z,3.05
2023-02-17T23:36:35.142Z,2.38
2023-02-17T23:39:01.787Z,2.92
2023-02-17T23:41:28.558Z,1.42
2023-02-17T23:43:55.163Z,2.45
2023-02-17T23:46:21.902Z,2.50
2023-02-17T23:48:48.813Z,2.90
2023-02-17T23:51:17.680Z,2.00
2023-02-17T23:53:45.116Z,1.92
2023-02-17T23:56:27.990Z,2.88
2023-02-17T23:58:54.702Z,2.28
